sensor_id;sensor_type;location;lat;lon;timestamp;temperature;humidity
15364;DHT22;7781;49.690;6.472;2022-10-31T00:01:34;8.00;99.90
15364;DHT22;7781;49.690;6.472;2022-10-31T00:04:03;8.00;99.90
15364;DHT22;7781;49.690;6.472;2022-10-31T00:06:31;8.00;99.90
15364;DHT22;7781;49.690;6.472;2022-10-31T00:09:01;8.00;99.90
15364;DHT22;7781;49.690;6.472;2022-10-31T00:11:31;8.00;99.90
15364;DHT22;7781;49.690;6.472;2022-10-31T00:13:59;7.90;99.90
15364;DHT22;7781;49.690;6.472;2022-10-31T00:16:28;7.90;99.90
15364;DHT22;7781;49.690;6.472;2022-10-31T00:18:59;7.90;99.90
15364;DHT22;7781;49.690;6.472;2022-10-31T00:21:28;8.00;99.90
15364;DHT22;7781;49.690;6.472;2022-10-31T00:23:57;8.00;99.90
15364;DHT22;7781;49.690;6.472;2022-10-31T00:26:26;8.00;99.90
15364;DHT22;7781;49.690;6.472;2022-10-31T00:28:56;8.00;99.90
15364;DHT22;7781;49.690;6.472;2022-10-31T00:31:26;8.10;99.90
15364;DHT22;7781;49.690;6.472;2022-10-31T00:33:54;8.20;99.90
15364;DHT22;7781;49.690;6.472;2022-10-31T00:36:24;8.20;99.90
15364;DHT22;7781;49.690;6.472;2022-10-31T00:38:52;8.20;99.90
15364;DHT22;7781;49.690;6.472;2022-10-31T00:41:21;8.20;99.90
15364;DHT22;7781;49.690;6.472;2022-10-31T00:43:49;8.20;99.90
15364;DHT22;7781;49.690;6.472;2022-10-31T00:46:18;8.30;99.90
15364;DHT22;7781;49.690;6.472;2022-10-31T00:48:49;8.20;99.90
15364;DHT22;7781;49.690;6.472;2022-10-31T00:51:17;8.30;99.90
15364;DHT22;7781;49.690;6.472;2022-10-31T00:53:45;8.30;99.90
15364;DHT22;7781;49.690;6.472;2022-10-31T00:56:13;8.30;99.90
15364;DHT22;7781;49.690;6.472;2022-10-31T00:58:41;8.40;99.90
15364;DHT22;7781;49.690;6.472;2022-10-31T01:01:09;8.40;99.90
15364;DHT22;7781;49.690;6.472;2022-10-31T01:03:39;8.40;99.90
15364;DHT22;7781;49.690;6.472;2022-10-31T01:06:12;8.40;99.90
15364;DHT22;7781;49.690;6.472;2022-10-31T01:08:41;8.50;99.90
15364;DHT22;7781;49.690;6.472;2022-10-31T01:11:14;8.50;99.90
15364;DHT22;7781;49.690;6.472;2022-10-31T01:13:42;8.50;99.90
15364;DHT22;7781;49.690;6.472;2022-10-31T01:16:13;8.50;99.90
15364;DHT22;7781;49.690;6.472;2022-10-31T01:18:43;8.50;99.90
15364;DHT22;7781;49.690;6.472;2022-10-31T01:21:12;8.60;99.90
15364;DHT22;7781;49.690;6.472;2022-10-31T01:23:41;8.50;99.90
15364;DHT22;7781;49.690;6.472;2022-10-31T01:26:14;8.50;99.90
15364;DHT22;7781;49.690;6.472;2022-10-31T01:28:45;8.60;99.90
15364;DHT22;7781;49.690;6.472;2022-10-31T01:31:14;8.60;99.90
15364;DHT22;7781;49.690;6.472;2022-10-31T01:33:44;8.50;99.90
15364;DHT22;7781;49.690;6.472;2022-10-31T01:36:15;8.60;99.90
15364;DHT22;7781;49.690;6.472;2022-10-31T01:38:44;8.60;99.90
15364;DHT22;7781;49.690;6.472;2022-10-31T01:41:14;8.60;99.90
15364;DHT22;7781;49.690;6.472;2022-10-31T01:43:49;8.60;99.90
15364;DHT22;7781;49.690;6.472;2022-10-31T01:46:21;8.60;99.90
15364;DHT22;7781;49.690;6.472;2022-10-31T01:48:53;8.60;99.90
15364;DHT22;7781;49.690;6.472;2022-10-31T01:51:25;8.70;99.90
15364;DHT22;7781;49.690;6.472;2022-10-31T01:53:56;8.70;99.90
15364;DHT22;7781;49.690;6.472;2022-10-31T01:56:25;8.60;99.90
15364;DHT22;7781;49.690;6.472;2022-10-31T01:58:55;8.60;99.90
15364;DHT22;7781;49.690;6.472;2022-10-31T02:01:23;8.60;99.90
15364;DHT22;7781;49.690;6.472;2022-10-31T02:03:53;8.60;99.90
15364;DHT22;7781;49.690;6.472;2022-10-31T02:06:30;8.60;99.90
15364;DHT22;7781;49.690;6.472;2022-10-31T02:09:00;8.60;99.90
15364;DHT22;7781;49.690;6.472;2022-10-31T02:11:31;8.50;99.90
15364;DHT22;7781;49.690;6.472;2022-10-31T02:14:02;8.60;99.90
15364;DHT22;7781;49.690;6.472;2022-10-31T02:16:30;8.50;99.90
15364;DHT22;7781;49.690;6.472;2022-10-31T02:18:59;8.50;99.90
15364;DHT22;7781;49.690;6.472;2022-10-31T02:21:32;8.50;99.90
15364;DHT22;7781;49.690;6.472;2022-10-31T02:24:40;8.50;99.90
15364;DHT22;7781;49.690;6.472;2022-10-31T02:30:29;8.60;99.90
15364;DHT22;7781;49.690;6.472;2022-10-31T02:33:15;8.60;99.90
15364;DHT22;7781;49.690;6.472;2022-10-31T02:35:54;8.70;99.90
15364;DHT22;7781;49.690;6.472;2022-10-31T02:38:31;8.70;99.90
15364;DHT22;7781;49.690;6.472;2022-10-31T02:41:09;8.70;99.90
15364;DHT22;7781;49.690;6.472;2022-10-31T02:43:58;8.70;99.90
15364;DHT22;7781;49.690;6.472;2022-10-31T02:46:32;8.70;99.90
15364;DHT22;7781;49.690;6.472;2022-10-31T02:49:09;8.70;99.90
15364;DHT22;7781;49.690;6.472;2022-10-31T02:51:39;8.80;99.90
15364;DHT22;7781;49.690;6.472;2022-10-31T02:54:18;8.80;99.90
15364;DHT22;7781;49.690;6.472;2022-10-31T02:56:53;8.80;99.90
15364;DHT22;7781;49.690;6.472;2022-10-31T02:59:23;8.80;99.90
15364;DHT22;7781;49.690;6.472;2022-10-31T03:05:03;8.80;99.90
15364;DHT22;7781;49.690;6.472;2022-10-31T03:07:38;8.80;99.90
15364;DHT22;7781;49.690;6.472;2022-10-31T03:10:16;8.80;99.90
15364;DHT22;7781;49.690;6.472;2022-10-31T03:12:49;8.70;99.90
15364;DHT22;7781;49.690;6.472;2022-10-31T03:15:24;8.70;99.90
15364;DHT22;7781;49.690;6.472;2022-10-31T03:17:58;8.70;99.90
15364;DHT22;7781;49.690;6.472;2022-10-31T03:20:33;8.60;99.90
15364;DHT22;7781;49.690;6.472;2022-10-31T03:23:06;8.70;99.90
15364;DHT22;7781;49.690;6.472;2022-10-31T03:25:36;8.60;99.90
15364;DHT22;7781;49.690;6.472;2022-10-31T03:28:09;8.60;99.90
15364;DHT22;7781;49.690;6.472;2022-10-31T03:30:41;8.60;99.90
15364;DHT22;7781;49.690;6.472;2022-10-31T03:33:15;8.60;99.90
15364;DHT22;7781;49.690;6.472;2022-10-31T03:35:48;8.60;99.90
15364;DHT22;7781;49.690;6.472;2022-10-31T03:38:21;8.50;99.90
15364;DHT22;7781;49.690;6.472;2022-10-31T03:40:51;8.50;99.90
15364;DHT22;7781;49.690;6.472;2022-10-31T03:43:25;8.50;99.90
15364;DHT22;7781;49.690;6.472;2022-10-31T03:45:55;8.40;99.90
15364;DHT22;7781;49.690;6.472;2022-10-31T03:48:23;8.40;99.90
15364;DHT22;7781;49.690;6.472;2022-10-31T03:50:59;8.40;99.90
15364;DHT22;7781;49.690;6.472;2022-10-31T03:53:33;8.30;99.90
15364;DHT22;7781;49.690;6.472;2022-10-31T03:56:07;8.20;99.90
15364;DHT22;7781;49.690;6.472;2022-10-31T03:58:41;8.20;99.90
15364;DHT22;7781;49.690;6.472;2022-10-31T04:01:15;8.10;99.90
15364;DHT22;7781;49.690;6.472;2022-10-31T04:03:45;8.10;99.90
15364;DHT22;7781;49.690;6.472;2022-10-31T04:06:17;8.10;99.90
15364;DHT22;7781;49.690;6.472;2022-10-31T04:08:52;8.00;99.90
15364;DHT22;7781;49.690;6.472;2022-10-31T04:11:25;8.00;99.90
15364;DHT22;7781;49.690;6.472;2022-10-31T04:14:14;8.00;99.90
15364;DHT22;7781;49.690;6.472;2022-10-31T04:16:44;8.00;99.90
15364;DHT22;7781;49.690;6.472;2022-10-31T04:19:13;8.00;99.90
15364;DHT22;7781;49.690;6.472;2022-10-31T04:21:43;8.00;99.90
15364;DHT22;7781;49.690;6.472;2022-10-31T04:24:11;8.00;99.90
15364;DHT22;7781;49.690;6.472;2022-10-31T04:26:40;8.00;99.90
15364;DHT22;7781;49.690;6.472;2022-10-31T04:29:08;8.00;99.90
15364;DHT22;7781;49.690;6.472;2022-10-31T04:31:37;8.00;99.90
15364;DHT22;7781;49.690;6.472;2022-10-31T04:34:06;8.00;99.90
15364;DHT22;7781;49.690;6.472;2022-10-31T04:36:35;8.00;99.90
15364;DHT22;7781;49.690;6.472;2022-10-31T04:39:04;8.00;99.90
15364;DHT22;7781;49.690;6.472;2022-10-31T04:41:44;8.00;99.90
15364;DHT22;7781;49.690;6.472;2022-10-31T04:44:15;8.00;99.90
15364;DHT22;7781;49.690;6.472;2022-10-31T04:46:46;7.90;99.90
15364;DHT22;7781;49.690;6.472;2022-10-31T04:49:14;7.90;99.90
15364;DHT22;7781;49.690;6.472;2022-10-31T04:51:42;7.90;99.90
15364;DHT22;7781;49.690;6.472;2022-10-31T04:54:13;7.90;99.90
15364;DHT22;7781;49.690;6.472;2022-10-31T04:57:00;8.00;99.90
15364;DHT22;7781;49.690;6.472;2022-10-31T04:59:28;8.00;99.90
15364;DHT22;7781;49.690;6.472;2022-10-31T05:01:59;8.00;99.90
15364;DHT22;7781;49.690;6.472;2022-10-31T05:04:44;8.10;99.90
15364;DHT22;7781;49.690;6.472;2022-10-31T05:07:12;8.10;99.90
15364;DHT22;7781;49.690;6.472;2022-10-31T05:09:41;8.20;99.90
15364;DHT22;7781;49.690;6.472;2022-10-31T05:12:12;8.20;99.90
15364;DHT22;7781;49.690;6.472;2022-10-31T05:15:03;8.20;99.90
15364;DHT22;7781;49.690;6.472;2022-10-31T05:17:50;8.20;99.90
15364;DHT22;7781;49.690;6.472;2022-10-31T05:20:38;8.30;99.90
15364;DHT22;7781;49.690;6.472;2022-10-31T05:23:29;8.30;99.90
15364;DHT22;7781;49.690;6.472;2022-10-31T05:26:00;8.30;99.90
15364;DHT22;7781;49.690;6.472;2022-10-31T05:28:28;8.40;99.90
15364;DHT22;7781;49.690;6.472;2022-10-31T05:30:57;8.50;99.90
15364;DHT22;7781;49.690;6.472;2022-10-31T05:33:25;8.50;99.90
15364;DHT22;7781;49.690;6.472;2022-10-31T05:35:53;8.50;99.90
15364;DHT22;7781;49.690;6.472;2022-10-31T05:38:33;8.60;99.90
15364;DHT22;7781;49.690;6.472;2022-10-31T05:41:11;8.60;99.90
15364;DHT22;7781;49.690;6.472;2022-10-31T05:43:44;8.60;99.90
15364;DHT22;7781;49.690;6.472;2022-10-31T05:46:13;8.70;99.90
15364;DHT22;7781;49.690;6.472;2022-10-31T05:49:00;8.80;99.90
15364;DHT22;7781;49.690;6.472;2022-10-31T05:51:47;8.80;99.90
15364;DHT22;7781;49.690;6.472;2022-10-31T05:54:15;8.80;99.90
15364;DHT22;7781;49.690;6.472;2022-10-31T05:56:46;8.80;99.90
15364;DHT22;7781;49.690;6.472;2022-10-31T05:59:14;8.80;99.90
15364;DHT22;7781;49.690;6.472;2022-10-31T06:01:43;8.80;99.90
15364;DHT22;7781;49.690;6.472;2022-10-31T06:04:44;8.80;99.90
15364;DHT22;7781;49.690;6.472;2022-10-31T06:07:12;8.80;99.90
15364;DHT22;7781;49.690;6.472;2022-10-31T06:09:40;8.90;99.90
15364;DHT22;7781;49.690;6.472;2022-10-31T06:12:10;8.90;99.90
15364;DHT22;7781;49.690;6.472;2022-10-31T06:14:57;8.90;99.90
15364;DHT22;7781;49.690;6.472;2022-10-31T06:17:25;8.90;99.90
15364;DHT22;7781;49.690;6.472;2022-10-31T06:20:16;9.00;99.90
15364;DHT22;7781;49.690;6.472;2022-10-31T06:22:54;9.00;99.90
15364;DHT22;7781;49.690;6.472;2022-10-31T06:25:23;9.10;99.90
15364;DHT22;7781;49.690;6.472;2022-10-31T06:27:53;9.10;99.90
15364;DHT22;7781;49.690;6.472;2022-10-31T06:30:27;9.20;99.90
15364;DHT22;7781;49.690;6.472;2022-10-31T06:33:01;9.20;99.90
15364;DHT22;7781;49.690;6.472;2022-10-31T06:35:30;9.20;99.90
15364;DHT22;7781;49.690;6.472;2022-10-31T06:37:59;9.30;99.90
15364;DHT22;7781;49.690;6.472;2022-10-31T06:40:37;9.30;99.90
15364;DHT22;7781;49.690;6.472;2022-10-31T06:43:19;9.40;99.90
15364;DHT22;7781;49.690;6.472;2022-10-31T06:45:47;9.40;99.90
15364;DHT22;7781;49.690;6.472;2022-10-31T06:48:22;9.50;99.90
15364;DHT22;7781;49.690;6.472;2022-10-31T06:51:17;9.50;99.90
15364;DHT22;7781;49.690;6.472;2022-10-31T06:53:45;9.60;99.90
15364;DHT22;7781;49.690;6.472;2022-10-31T06:56:15;9.60;99.90
15364;DHT22;7781;49.690;6.472;2022-10-31T06:58:52;9.70;99.90
15364;DHT22;7781;49.690;6.472;2022-10-31T07:01:35;9.70;99.90
15364;DHT22;7781;49.690;6.472;2022-10-31T07:04:03;9.80;99.90
15364;DHT22;7781;49.690;6.472;2022-10-31T07:06:34;9.80;99.90
15364;DHT22;7781;49.690;6.472;2022-10-31T07:09:03;9.90;99.90
15364;DHT22;7781;49.690;6.472;2022-10-31T07:11:31;9.90;99.90
15364;DHT22;7781;49.690;6.472;2022-10-31T07:14:00;9.90;99.90
15364;DHT22;7781;49.690;6.472;2022-10-31T07:16:28;10.00;99.90
15364;DHT22;7781;49.690;6.472;2022-10-31T07:18:57;10.00;99.90
15364;DHT22;7781;49.690;6.472;2022-10-31T07:21:25;10.00;99.90
15364;DHT22;7781;49.690;6.472;2022-10-31T07:23:53;10.10;99.90
15364;DHT22;7781;49.690;6.472;2022-10-31T07:26:39;10.10;99.90
15364;DHT22;7781;49.690;6.472;2022-10-31T07:29:10;10.10;99.90
15364;DHT22;7781;49.690;6.472;2022-10-31T07:31:38;10.20;99.90
15364;DHT22;7781;49.690;6.472;2022-10-31T07:34:14;10.20;99.90
15364;DHT22;7781;49.690;6.472;2022-10-31T07:37:10;10.20;99.90
15364;DHT22;7781;49.690;6.472;2022-10-31T07:39:38;10.30;99.90
15364;DHT22;7781;49.690;6.472;2022-10-31T07:42:06;10.30;99.90
15364;DHT22;7781;49.690;6.472;2022-10-31T07:44:37;10.40;99.90
15364;DHT22;7781;49.690;6.472;2022-10-31T07:47:23;10.40;99.90
15364;DHT22;7781;49.690;6.472;2022-10-31T07:50:11;10.40;99.90
15364;DHT22;7781;49.690;6.472;2022-10-31T07:53:01;10.50;99.90
15364;DHT22;7781;49.690;6.472;2022-10-31T07:56:08;10.50;99.90
15364;DHT22;7781;49.690;6.472;2022-10-31T07:58:36;10.50;99.90
15364;DHT22;7781;49.690;6.472;2022-10-31T08:01:06;10.50;99.90
15364;DHT22;7781;49.690;6.472;2022-10-31T08:03:42;10.60;99.90
15364;DHT22;7781;49.690;6.472;2022-10-31T08:06:30;10.60;99.90
15364;DHT22;7781;49.690;6.472;2022-10-31T08:09:11;10.60;99.90
15364;DHT22;7781;49.690;6.472;2022-10-31T08:11:40;10.60;99.90
15364;DHT22;7781;49.690;6.472;2022-10-31T08:14:08;10.60;99.90
15364;DHT22;7781;49.690;6.472;2022-10-31T08:16:37;10.70;99.90
15364;DHT22;7781;49.690;6.472;2022-10-31T08:19:06;10.80;99.90
15364;DHT22;7781;49.690;6.472;2022-10-31T08:21:37;10.80;99.90
15364;DHT22;7781;49.690;6.472;2022-10-31T08:24:07;10.80;99.90
15364;DHT22;7781;49.690;6.472;2022-10-31T08:26:36;10.80;99.90
15364;DHT22;7781;49.690;6.472;2022-10-31T08:29:07;10.80;99.90
15364;DHT22;7781;49.690;6.472;2022-10-31T08:31:38;10.80;99.90
15364;DHT22;7781;49.690;6.472;2022-10-31T08:34:27;10.90;99.90
15364;DHT22;7781;49.690;6.472;2022-10-31T08:37:14;10.90;99.90
15364;DHT22;7781;49.690;6.472;2022-10-31T08:39:49;11.00;99.90
15364;DHT22;7781;49.690;6.472;2022-10-31T08:42:16;11.00;99.90
15364;DHT22;7781;49.690;6.472;2022-10-31T08:44:44;11.10;99.90
15364;DHT22;7781;49.690;6.472;2022-10-31T08:47:14;11.10;99.90
15364;DHT22;7781;49.690;6.472;2022-10-31T08:49:42;11.10;99.90
15364;DHT22;7781;49.690;6.472;2022-10-31T08:52:10;11.20;99.90
15364;DHT22;7781;49.690;6.472;2022-10-31T08:54:41;11.20;99.90
15364;DHT22;7781;49.690;6.472;2022-10-31T08:57:27;11.30;99.90
15364;DHT22;7781;49.690;6.472;2022-10-31T08:59:58;11.40;99.90
15364;DHT22;7781;49.690;6.472;2022-10-31T09:02:57;11.50;99.90
15364;DHT22;7781;49.690;6.472;2022-10-31T09:05:27;11.50;99.90
15364;DHT22;7781;49.690;6.472;2022-10-31T09:07:57;11.60;99.90
15364;DHT22;7781;49.690;6.472;2022-10-31T09:10:27;11.60;99.90
15364;DHT22;7781;49.690;6.472;2022-10-31T09:12:55;11.60;99.90
15364;DHT22;7781;49.690;6.472;2022-10-31T09:15:48;11.70;99.90
15364;DHT22;7781;49.690;6.472;2022-10-31T09:18:24;11.80;99.90
15364;DHT22;7781;49.690;6.472;2022-10-31T09:20:58;11.80;99.90
15364;DHT22;7781;49.690;6.472;2022-10-31T09:23:29;11.90;99.90
15364;DHT22;7781;49.690;6.472;2022-10-31T09:26:00;12.00;99.90
15364;DHT22;7781;49.690;6.472;2022-10-31T09:28:41;12.00;99.90
15364;DHT22;7781;49.690;6.472;2022-10-31T09:31:13;12.10;99.90
15364;DHT22;7781;49.690;6.472;2022-10-31T09:34:04;12.20;99.90
15364;DHT22;7781;49.690;6.472;2022-10-31T09:36:36;12.20;99.90
15364;DHT22;7781;49.690;6.472;2022-10-31T09:39:07;12.20;99.90
15364;DHT22;7781;49.690;6.472;2022-10-31T09:41:55;12.30;99.90
15364;DHT22;7781;49.690;6.472;2022-10-31T09:44:37;12.40;99.90
15364;DHT22;7781;49.690;6.472;2022-10-31T09:47:20;12.40;99.90
15364;DHT22;7781;49.690;6.472;2022-10-31T09:50:17;12.50;99.90
15364;DHT22;7781;49.690;6.472;2022-10-31T09:52:54;12.60;99.90
15364;DHT22;7781;49.690;6.472;2022-10-31T09:55:31;12.60;99.90
15364;DHT22;7781;49.690;6.472;2022-10-31T09:58:05;12.70;99.90
15364;DHT22;7781;49.690;6.472;2022-10-31T10:00:34;12.80;99.90
15364;DHT22;7781;49.690;6.472;2022-10-31T10:03:10;12.80;99.90
15364;DHT22;7781;49.690;6.472;2022-10-31T10:05:46;12.90;99.90
15364;DHT22;7781;49.690;6.472;2022-10-31T10:08:30;12.90;99.90
15364;DHT22;7781;49.690;6.472;2022-10-31T10:11:20;13.00;99.90
15364;DHT22;7781;49.690;6.472;2022-10-31T10:14:04;13.10;99.90
15364;DHT22;7781;49.690;6.472;2022-10-31T10:16:44;13.10;99.90
15364;DHT22;7781;49.690;6.472;2022-10-31T10:19:29;13.10;99.90
15364;DHT22;7781;49.690;6.472;2022-10-31T10:22:04;13.10;99.90
15364;DHT22;7781;49.690;6.472;2022-10-31T10:24:47;13.20;99.90
15364;DHT22;7781;49.690;6.472;2022-10-31T10:27:21;13.20;99.90
15364;DHT22;7781;49.690;6.472;2022-10-31T10:29:58;13.30;99.90
15364;DHT22;7781;49.690;6.472;2022-10-31T10:32:30;13.40;99.90
15364;DHT22;7781;49.690;6.472;2022-10-31T10:35:07;13.40;99.90
15364;DHT22;7781;49.690;6.472;2022-10-31T10:37:43;13.50;99.90
15364;DHT22;7781;49.690;6.472;2022-10-31T10:40:15;13.50;99.90
15364;DHT22;7781;49.690;6.472;2022-10-31T10:42:45;13.70;99.90
15364;DHT22;7781;49.690;6.472;2022-10-31T10:45:37;13.70;99.90
15364;DHT22;7781;49.690;6.472;2022-10-31T10:48:34;13.70;99.90
15364;DHT22;7781;49.690;6.472;2022-10-31T10:51:05;13.70;99.90
15364;DHT22;7781;49.690;6.472;2022-10-31T10:57:03;13.70;99.90
15364;DHT22;7781;49.690;6.472;2022-10-31T10:59:33;13.80;99.90
15364;DHT22;7781;49.690;6.472;2022-10-31T11:02:08;13.80;99.90
15364;DHT22;7781;49.690;6.472;2022-10-31T11:04:43;13.80;99.90
15364;DHT22;7781;49.690;6.472;2022-10-31T11:07:12;13.90;99.90
15364;DHT22;7781;49.690;6.472;2022-10-31T11:09:41;13.90;99.90
15364;DHT22;7781;49.690;6.472;2022-10-31T11:12:15;14.00;99.90
15364;DHT22;7781;49.690;6.472;2022-10-31T11:14:49;14.10;99.90
15364;DHT22;7781;49.690;6.472;2022-10-31T11:17:25;14.20;99.90
15364;DHT22;7781;49.690;6.472;2022-10-31T11:20:17;14.40;99.90
15364;DHT22;7781;49.690;6.472;2022-10-31T11:23:01;14.50;99.90
15364;DHT22;7781;49.690;6.472;2022-10-31T11:25:31;14.60;99.90
15364;DHT22;7781;49.690;6.472;2022-10-31T11:28:00;14.60;99.90
15364;DHT22;7781;49.690;6.472;2022-10-31T11:30:28;14.60;99.90
15364;DHT22;7781;49.690;6.472;2022-10-31T11:32:58;14.70;99.90
15364;DHT22;7781;49.690;6.472;2022-10-31T11:35:28;14.70;99.90
15364;DHT22;7781;49.690;6.472;2022-10-31T11:37:59;14.80;99.90
15364;DHT22;7781;49.690;6.472;2022-10-31T11:40:30;14.80;99.90
15364;DHT22;7781;49.690;6.472;2022-10-31T11:42:59;14.80;99.90
15364;DHT22;7781;49.690;6.472;2022-10-31T11:45:29;14.80;99.90
15364;DHT22;7781;49.690;6.472;2022-10-31T11:47:59;14.80;99.90
15364;DHT22;7781;49.690;6.472;2022-10-31T11:50:34;14.80;99.90
15364;DHT22;7781;49.690;6.472;2022-10-31T11:53:04;14.80;99.90
15364;DHT22;7781;49.690;6.472;2022-10-31T11:55:41;14.80;99.90
15364;DHT22;7781;49.690;6.472;2022-10-31T11:58:20;14.90;99.90
15364;DHT22;7781;49.690;6.472;2022-10-31T12:00:50;14.90;99.90
15364;DHT22;7781;49.690;6.472;2022-10-31T12:03:41;14.90;99.90
15364;DHT22;7781;49.690;6.472;2022-10-31T12:06:15;14.90;99.90
15364;DHT22;7781;49.690;6.472;2022-10-31T12:08:45;14.90;99.90
15364;DHT22;7781;49.690;6.472;2022-10-31T12:11:30;15.00;99.90
15364;DHT22;7781;49.690;6.472;2022-10-31T12:14:08;15.00;99.90
15364;DHT22;7781;49.690;6.472;2022-10-31T12:16:47;15.10;99.90
15364;DHT22;7781;49.690;6.472;2022-10-31T12:19:25;15.10;99.90
15364;DHT22;7781;49.690;6.472;2022-10-31T12:22:06;15.10;99.90
15364;DHT22;7781;49.690;6.472;2022-10-31T12:25:02;15.20;99.90
15364;DHT22;7781;49.690;6.472;2022-10-31T12:27:44;15.30;99.90
15364;DHT22;7781;49.690;6.472;2022-10-31T12:30:20;15.20;99.90
15364;DHT22;7781;49.690;6.472;2022-10-31T12:33:04;15.30;99.90
15364;DHT22;7781;49.690;6.472;2022-10-31T12:35:45;15.30;99.90
15364;DHT22;7781;49.690;6.472;2022-10-31T12:38:35;15.50;99.90
15364;DHT22;7781;49.690;6.472;2022-10-31T12:41:17;15.50;99.90
15364;DHT22;7781;49.690;6.472;2022-10-31T12:43:55;15.60;99.90
15364;DHT22;7781;49.690;6.472;2022-10-31T12:46:31;15.60;99.90
15364;DHT22;7781;49.690;6.472;2022-10-31T12:49:14;15.60;99.90
15364;DHT22;7781;49.690;6.472;2022-10-31T12:51:51;15.60;99.90
15364;DHT22;7781;49.690;6.472;2022-10-31T12:54:40;15.60;99.90
15364;DHT22;7781;49.690;6.472;2022-10-31T12:57:23;15.60;99.90
15364;DHT22;7781;49.690;6.472;2022-10-31T12:59:59;15.70;99.90
15364;DHT22;7781;49.690;6.472;2022-10-31T13:02:32;16.00;99.90
15364;DHT22;7781;49.690;6.472;2022-10-31T13:05:04;16.40;99.90
15364;DHT22;7781;49.690;6.472;2022-10-31T13:07:36;16.80;99.90
15364;DHT22;7781;49.690;6.472;2022-10-31T13:10:10;17.20;99.90
15364;DHT22;7781;49.690;6.472;2022-10-31T13:12:43;17.60;99.90
15364;DHT22;7781;49.690;6.472;2022-10-31T13:15:17;18.00;99.90
15364;DHT22;7781;49.690;6.472;2022-10-31T13:17:48;18.20;99.90
15364;DHT22;7781;49.690;6.472;2022-10-31T13:20:23;18.30;99.90
15364;DHT22;7781;49.690;6.472;2022-10-31T13:22:55;18.40;99.90
15364;DHT22;7781;49.690;6.472;2022-10-31T13:25:27;18.50;99.90
15364;DHT22;7781;49.690;6.472;2022-10-31T13:28:00;18.60;99.90
15364;DHT22;7781;49.690;6.472;2022-10-31T13:30:33;18.60;99.90
15364;DHT22;7781;49.690;6.472;2022-10-31T13:33:07;18.50;99.90
15364;DHT22;7781;49.690;6.472;2022-10-31T13:35:41;18.30;99.90
15364;DHT22;7781;49.690;6.472;2022-10-31T13:38:19;18.30;99.90
15364;DHT22;7781;49.690;6.472;2022-10-31T13:40:53;18.40;99.90
15364;DHT22;7781;49.690;6.472;2022-10-31T13:43:28;18.50;99.90
15364;DHT22;7781;49.690;6.472;2022-10-31T13:45:59;18.60;99.90
15364;DHT22;7781;49.690;6.472;2022-10-31T13:48:36;18.60;99.90
15364;DHT22;7781;49.690;6.472;2022-10-31T13:51:07;18.70;99.90
15364;DHT22;7781;49.690;6.472;2022-10-31T13:53:42;18.70;99.90
15364;DHT22;7781;49.690;6.472;2022-10-31T13:56:22;18.80;99.90
15364;DHT22;7781;49.690;6.472;2022-10-31T13:59:01;18.80;99.90
15364;DHT22;7781;49.690;6.472;2022-10-31T14:01:33;18.80;99.90
15364;DHT22;7781;49.690;6.472;2022-10-31T14:04:04;18.60;99.90
15364;DHT22;7781;49.690;6.472;2022-10-31T14:06:45;18.50;99.90
15364;DHT22;7781;49.690;6.472;2022-10-31T14:09:20;18.30;99.90
15364;DHT22;7781;49.690;6.472;2022-10-31T14:11:50;18.20;99.90
15364;DHT22;7781;49.690;6.472;2022-10-31T14:14:20;18.20;99.90
15364;DHT22;7781;49.690;6.472;2022-10-31T14:16:56;18.30;99.90
15364;DHT22;7781;49.690;6.472;2022-10-31T14:19:26;18.40;99.90
15364;DHT22;7781;49.690;6.472;2022-10-31T14:21:54;18.50;99.90
15364;DHT22;7781;49.690;6.472;2022-10-31T14:24:34;18.60;99.90
15364;DHT22;7781;49.690;6.472;2022-10-31T14:27:29;18.60;99.90
15364;DHT22;7781;49.690;6.472;2022-10-31T14:29:52;18.60;99.90
15364;DHT22;7781;49.690;6.472;2022-10-31T14:32:24;18.60;99.90
15364;DHT22;7781;49.690;6.472;2022-10-31T14:34:55;18.60;99.90
15364;DHT22;7781;49.690;6.472;2022-10-31T14:37:36;18.60;99.90
15364;DHT22;7781;49.690;6.472;2022-10-31T14:40:29;18.60;99.90
15364;DHT22;7781;49.690;6.472;2022-10-31T14:43:24;18.60;99.90
15364;DHT22;7781;49.690;6.472;2022-10-31T14:46:01;18.60;99.90
15364;DHT22;7781;49.690;6.472;2022-10-31T14:48:50;18.50;99.90
15364;DHT22;7781;49.690;6.472;2022-10-31T14:51:22;18.50;99.90
15364;DHT22;7781;49.690;6.472;2022-10-31T14:53:53;18.50;99.90
15364;DHT22;7781;49.690;6.472;2022-10-31T14:56:24;18.40;99.90
15364;DHT22;7781;49.690;6.472;2022-10-31T14:58:54;18.40;41.80
15364;DHT22;7781;49.690;6.472;2022-10-31T15:01:26;18.40;54.90
15364;DHT22;7781;49.690;6.472;2022-10-31T15:04:03;18.50;1.00
15364;DHT22;7781;49.690;6.472;2022-10-31T15:06:53;18.50;1.00
15364;DHT22;7781;49.690;6.472;2022-10-31T15:09:24;18.40;1.00
15364;DHT22;7781;49.690;6.472;2022-10-31T15:11:52;18.50;1.00
15364;DHT22;7781;49.690;6.472;2022-10-31T15:14:24;18.40;1.00
15364;DHT22;7781;49.690;6.472;2022-10-31T15:16:53;18.40;1.00
15364;DHT22;7781;49.690;6.472;2022-10-31T15:19:24;18.30;1.00
15364;DHT22;7781;49.690;6.472;2022-10-31T15:21:53;18.30;1.00
15364;DHT22;7781;49.690;6.472;2022-10-31T15:24:24;18.20;1.00
15364;DHT22;7781;49.690;6.472;2022-10-31T15:26:56;18.10;1.00
15364;DHT22;7781;49.690;6.472;2022-10-31T15:29:31;18.00;1.00
15364;DHT22;7781;49.690;6.472;2022-10-31T15:32:01;17.90;1.00
15364;DHT22;7781;49.690;6.472;2022-10-31T15:34:39;17.70;1.00
15364;DHT22;7781;49.690;6.472;2022-10-31T15:37:10;17.60;26.10
15364;DHT22;7781;49.690;6.472;2022-10-31T15:39:39;17.50;15.10
15364;DHT22;7781;49.690;6.472;2022-10-31T15:42:17;17.30;15.60
15364;DHT22;7781;49.690;6.472;2022-10-31T15:44:48;17.20;2.80
15364;DHT22;7781;49.690;6.472;2022-10-31T15:47:18;17.10;46.00
15364;DHT22;7781;49.690;6.472;2022-10-31T15:49:50;17.00;96.10
15364;DHT22;7781;49.690;6.472;2022-10-31T15:52:27;16.70;99.90
15364;DHT22;7781;49.690;6.472;2022-10-31T15:54:58;16.50;99.90
15364;DHT22;7781;49.690;6.472;2022-10-31T15:57:27;16.00;99.90
15364;DHT22;7781;49.690;6.472;2022-10-31T15:59:57;15.80;99.90
15364;DHT22;7781;49.690;6.472;2022-10-31T16:02:26;15.50;99.90
15364;DHT22;7781;49.690;6.472;2022-10-31T16:04:58;15.60;99.90
15364;DHT22;7781;49.690;6.472;2022-10-31T16:07:28;15.50;99.90
15364;DHT22;7781;49.690;6.472;2022-10-31T16:09:57;15.60;99.90
15364;DHT22;7781;49.690;6.472;2022-10-31T16:12:30;15.80;99.90
15364;DHT22;7781;49.690;6.472;2022-10-31T16:14:59;15.90;99.90
15364;DHT22;7781;49.690;6.472;2022-10-31T16:17:28;15.90;99.90
15364;DHT22;7781;49.690;6.472;2022-10-31T16:19:59;15.90;99.90
15364;DHT22;7781;49.690;6.472;2022-10-31T16:22:31;15.90;99.90
15364;DHT22;7781;49.690;6.472;2022-10-31T16:25:03;16.00;99.90
15364;DHT22;7781;49.690;6.472;2022-10-31T16:27:34;15.90;99.90
15364;DHT22;7781;49.690;6.472;2022-10-31T16:32:55;15.80;99.90
15364;DHT22;7781;49.690;6.472;2022-10-31T16:35:28;15.80;99.90
15364;DHT22;7781;49.690;6.472;2022-10-31T16:37:59;15.80;99.90
15364;DHT22;7781;49.690;6.472;2022-10-31T16:40:27;15.80;99.90
15364;DHT22;7781;49.690;6.472;2022-10-31T16:42:57;15.60;99.90
15364;DHT22;7781;49.690;6.472;2022-10-31T16:45:28;15.50;99.90
15364;DHT22;7781;49.690;6.472;2022-10-31T16:48:03;15.20;99.90
15364;DHT22;7781;49.690;6.472;2022-10-31T16:50:33;14.90;99.90